createdAt,value
2023-03-28T00:01:03.966Z,5.82
2023-03-28T00:03:35.547Z,8.07
2023-03-28T00:06:03.567Z,7.47
2023-03-28T00:08:30.915Z,6.10
2023-03-28T00:11:05.806Z,6.28
2023-03-28T00:13:33.768Z,6.50
2023-03-28T00:16:08.850Z,6.53
2023-03-28T00:18:40.263Z,7.20
2023-03-28T00:21:10.072Z,6.07
2023-03-28T00:23:37.199Z,7.53
2023-03-28T00:26:07.904Z,9.60
2023-03-28T00:28:35.335Z,7.32
2023-03-28T00:31:03.324Z,8.90
2023-03-28T00:33:30.576Z,8.88
2023-03-28T00:35:57.840Z,6.47
2023-03-28T00:38:25.138Z,8.23
2023-03-28T00:40:56.117Z,8.93
2023-03-28T00:43:37.666Z,7.43
2023-03-28T00:46:09.382Z,7.13
2023-03-28T00:48:37.306Z,10.25
2023-03-28T00:51:05.416Z,7.35
2023-03-28T00:53:33.930Z,7.60
2023-03-28T00:56:04.177Z,10.02
2023-03-28T00:58:33.300Z,8.82
2023-03-28T01:01:00.478Z,6.80
2023-03-28T01:03:30.475Z,8.52
2023-03-28T01:05:58.420Z,9.32
2023-03-28T01:08:27.054Z,8.20
2023-03-28T01:10:54.129Z,8.82
2023-03-28T01:13:29.791Z,8.23
2023-03-28T01:15:57.273Z,8.20
2023-03-28T01:18:24.603Z,7.80
2023-03-28T01:21:01.000Z,8.52
2023-03-28T01:23:46.917Z,8.15
2023-03-28T01:26:28.344Z,6.32
2023-03-28T01:29:21.168Z,8.18
2023-03-28T01:32:06.684Z,9.90
2023-03-28T01:34:52.421Z,9.57
2023-03-28T01:37:38.010Z,9.43
2023-03-28T01:40:21.243Z,9.00
2023-03-28T01:42:54.322Z,9.32
2023-03-28T01:45:33.404Z,8.25
2023-03-28T01:48:03.585Z,9.80
2023-03-28T01:50:38.983Z,8.45
2023-03-28T01:53:12.032Z,11.15
2023-03-28T01:55:42.456Z,10.32
2023-03-28T01:58:19.218Z,7.32
2023-03-28T02:00:49.852Z,9.20
2023-03-28T02:03:19.898Z,9.00
2023-03-28T02:05:48.916Z,8.13
2023-03-28T02:08:18.747Z,10.10
2023-03-28T02:10:46.951Z,10.10
2023-03-28T02:13:22.097Z,7.93
2023-03-28T02:15:51.248Z,8.15
2023-03-28T02:18:25.118Z,8.63
2023-03-28T02:20:57.461Z,8.35
2023-03-28T02:23:36.037Z,7.55
2023-03-28T02:26:03.383Z,7.95
2023-03-28T02:28:32.350Z,6.82
2023-03-28T02:31:01.594Z,8.32
2023-03-28T02:33:39.759Z,8.93
2023-03-28T02:36:27.568Z,10.45
2023-03-28T02:39:02.294Z,11.45
2023-03-28T02:41:47.868Z,12.45
2023-03-28T02:44:28.359Z,12.55
2023-03-28T02:46:55.950Z,12.82
2023-03-28T02:49:43.745Z,12.43
2023-03-28T02:52:23.844Z,13.52
2023-03-28T02:54:54.509Z,11.68
2023-03-28T02:57:39.676Z,12.98
2023-03-28T03:00:12.255Z,12.10
2023-03-28T03:02:40.677Z,12.85
2023-03-28T03:05:09.737Z,14.05
2023-03-28T03:07:41.548Z,16.23
2023-03-28T03:10:10.045Z,17.27
2023-03-28T03:12:37.594Z,16.05
2023-03-28T03:15:05.632Z,11.95
2023-03-28T03:17:32.750Z,11.05
2023-03-28T03:20:02.439Z,11.40
2023-03-28T03:22:29.532Z,9.95
2023-03-28T03:24:57.544Z,10.85
2023-03-28T03:27:24.595Z,11.00
2023-03-28T03:29:51.953Z,11.05
2023-03-28T03:32:19.017Z,11.95
2023-03-28T03:34:46.119Z,11.70
2023-03-28T03:37:14.694Z,11.10
2023-03-28T03:39:41.955Z,10.90
2023-03-28T03:42:09.175Z,12.13
2023-03-28T03:44:36.319Z,12.45
2023-03-28T03:47:03.536Z,11.38
2023-03-28T03:49:30.641Z,10.25
2023-03-28T03:51:57.778Z,10.88
2023-03-28T03:54:24.870Z,10.45
2023-03-28T03:56:52.109Z,11.77
2023-03-28T03:59:19.264Z,12.70
2023-03-28T04:01:46.402Z,11.73
2023-03-28T04:04:14.078Z,12.70
2023-03-28T04:06:41.260Z,12.30
2023-03-28T04:09:08.952Z,9.95
2023-03-28T04:11:36.370Z,13.70
2023-03-28T04:14:04.279Z,13.38
2023-03-28T04:16:39.911Z,11.98
2023-03-28T04:19:08.464Z,15.27
2023-03-28T04:21:35.567Z,12.35
2023-03-28T04:24:03.917Z,13.57
2023-03-28T04:26:35.684Z,11.02
2023-03-28T04:29:03.706Z,11.48
2023-03-28T04:31:35.791Z,12.13
2023-03-28T04:34:06.201Z,9.98
2023-03-28T04:36:33.569Z,12.57
2023-03-28T04:39:02.884Z,14.10
2023-03-28T04:41:33.227Z,20.70
2023-03-28T04:44:00.878Z,26.27
2023-03-28T04:46:29.600Z,26.42
2023-03-28T04:48:57.199Z,21.40
2023-03-28T04:51:25.183Z,23.25
2023-03-28T04:53:52.375Z,23.20
2023-03-28T04:56:19.536Z,28.23
2023-03-28T04:58:46.648Z,25.10
2023-03-28T05:01:14.674Z,23.25
2023-03-28T05:03:41.900Z,22.02
2023-03-28T05:06:09.082Z,24.63
2023-03-28T05:08:36.204Z,26.45
2023-03-28T05:11:03.336Z,28.05
2023-03-28T05:13:30.705Z,29.83
2023-03-28T05:15:57.851Z,25.08
2023-03-28T05:18:24.971Z,23.98
2023-03-28T05:20:52.040Z,27.02
2023-03-28T05:23:19.394Z,24.08
2023-03-28T05:25:53.761Z,22.00
2023-03-28T05:28:21.486Z,21.10
2023-03-28T05:30:48.606Z,24.85
2023-03-28T05:33:16.038Z,25.20
2023-03-28T05:35:43.272Z,19.05
2023-03-28T05:38:10.652Z,21.02
2023-03-28T05:40:37.927Z,22.63
2023-03-28T05:43:05.100Z,26.52
2023-03-28T05:45:32.267Z,32.58
2023-03-28T05:47:59.625Z,24.98
2023-03-28T05:50:26.785Z,23.35
2023-03-28T05:52:54.169Z,23.55
2023-03-28T05:55:21.361Z,20.42
2023-03-28T05:57:48.491Z,21.73
2023-03-28T06:00:16.009Z,20.60
2023-03-28T06:02:43.493Z,19.65
2023-03-28T06:05:11.868Z,18.38
2023-03-28T06:07:42.833Z,18.92
2023-03-28T06:10:11.807Z,16.38
2023-03-28T06:12:39.105Z,16.80
2023-03-28T06:15:06.528Z,16.15
2023-03-28T06:17:33.710Z,17.45
2023-03-28T06:20:01.052Z,19.23
2023-03-28T06:22:28.230Z,18.58
2023-03-28T06:24:55.507Z,16.50
2023-03-28T06:27:22.670Z,20.73
2023-03-28T06:29:49.777Z,21.05
2023-03-28T06:32:18.210Z,22.17
2023-03-28T06:34:45.702Z,17.70
2023-03-28T06:37:12.843Z,21.98
2023-03-28T06:39:40.063Z,21.70
2023-03-28T06:42:07.155Z,23.13
2023-03-28T06:44:34.262Z,20.90
2023-03-28T06:47:01.528Z,25.02
2023-03-28T06:49:28.597Z,21.40
2023-03-28T06:51:55.680Z,20.75
2023-03-28T06:54:22.911Z,19.02
2023-03-28T06:56:50.021Z,18.98
2023-03-28T06:59:17.174Z,21.65
2023-03-28T07:01:44.361Z,21.90
2023-03-28T07:04:11.497Z,21.13
2023-03-28T07:06:38.669Z,20.05
2023-03-28T07:09:06.752Z,21.30
2023-03-28T07:11:34.054Z,17.75
2023-03-28T07:14:01.135Z,21.65
2023-03-28T07:16:28.359Z,17.33
2023-03-28T07:18:55.493Z,17.15
2023-03-28T07:21:22.648Z,18.48
2023-03-28T07:23:49.860Z,18.95
2023-03-28T07:26:17.399Z,18.25
2023-03-28T07:28:44.481Z,19.15
2023-03-28T07:31:12.337Z,15.32
2023-03-28T07:33:39.872Z,18.33
2023-03-28T07:36:14.663Z,15.80
2023-03-28T07:38:42.070Z,13.45
2023-03-28T07:41:09.564Z,14.82
2023-03-28T07:43:38.858Z,12.02
2023-03-28T07:46:08.182Z,16.95
2023-03-28T07:48:36.147Z,13.13
2023-03-28T07:51:04.175Z,11.20
2023-03-28T07:53:31.281Z,11.65
2023-03-28T07:55:58.396Z,11.05
2023-03-28T07:58:25.542Z,12.05
2023-03-28T08:00:52.648Z,13.52
2023-03-28T08:03:19.853Z,15.20
2023-03-28T08:05:51.931Z,10.75
2023-03-28T08:08:20.422Z,12.75
2023-03-28T08:10:51.043Z,12.98
2023-03-28T08:13:20.849Z,14.05
2023-03-28T08:15:56.133Z,11.95
2023-03-28T08:18:25.511Z,12.15
2023-03-28T08:20:58.528Z,11.18
2023-03-28T08:23:26.720Z,17.13
2023-03-28T08:26:04.502Z,10.68
2023-03-28T08:28:32.787Z,12.15
2023-03-28T08:31:00.385Z,12.50
2023-03-28T08:33:29.660Z,11.40
2023-03-28T08:35:57.019Z,14.40
2023-03-28T08:38:24.251Z,13.48
2023-03-28T08:41:05.483Z,13.80
2023-03-28T08:46:01.362Z,15.63
2023-03-28T08:48:28.566Z,15.88
2023-03-28T08:51:06.107Z,14.35
2023-03-28T08:53:37.549Z,14.25
2023-03-28T08:56:06.104Z,12.88
2023-03-28T08:58:35.752Z,14.45
2023-03-28T09:01:03.616Z,15.52
2023-03-28T09:03:33.533Z,16.08
2023-03-28T09:06:04.814Z,14.68
2023-03-28T09:11:03.985Z,12.25
2023-03-28T09:13:37.202Z,13.57
2023-03-28T09:16:08.930Z,12.52
2023-03-28T09:18:54.942Z,12.35
2023-03-28T09:21:21.992Z,11.07
2023-03-28T09:24:07.144Z,13.15
2023-03-28T09:26:40.674Z,13.13
2023-03-28T09:29:17.735Z,16.58
2023-03-28T09:31:49.430Z,12.88
2023-03-28T09:34:23.092Z,13.40
2023-03-28T09:36:53.411Z,12.15
2023-03-28T09:39:24.680Z,9.30
2023-03-28T09:41:54.588Z,11.13
2023-03-28T09:44:24.371Z,9.57
2023-03-28T09:46:52.173Z,9.10
2023-03-28T09:49:23.795Z,8.30
2023-03-28T09:51:52.582Z,9.07
2023-03-28T09:54:24.438Z,7.93
2023-03-28T09:56:51.559Z,13.23
2023-03-28T09:59:28.372Z,9.60
2023-03-28T10:01:56.643Z,9.98
2023-03-28T10:04:30.602Z,6.70
2023-03-28T10:07:16.971Z,8.43
2023-03-28T10:09:48.888Z,7.22
2023-03-28T10:12:22.215Z,9.50
2023-03-28T10:14:49.390Z,7.35
2023-03-28T10:17:18.556Z,6.65
2023-03-28T10:19:46.897Z,7.07
2023-03-28T10:22:14.087Z,7.80
2023-03-28T10:24:41.302Z,7.07
2023-03-28T10:27:12.841Z,9.55
2023-03-28T10:29:40.115Z,10.27
2023-03-28T10:32:07.754Z,7.95
2023-03-28T10:34:35.002Z,8.02
2023-03-28T10:37:02.268Z,9.80
2023-03-28T10:39:30.924Z,8.73
2023-03-28T10:41:59.019Z,8.45
2023-03-28T10:44:30.571Z,9.00
2023-03-28T10:47:00.151Z,9.65
2023-03-28T10:49:28.400Z,7.22
2023-03-28T10:51:56.576Z,9.38
2023-03-28T10:54:35.526Z,8.75
2023-03-28T10:57:11.193Z,7.32
2023-03-28T10:59:56.553Z,5.95
2023-03-28T11:02:36.074Z,7.20
2023-03-28T11:05:03.173Z,5.82
2023-03-28T11:07:42.486Z,7.18
2023-03-28T11:10:24.844Z,8.40
2023-03-28T11:13:22.345Z,9.65
2023-03-28T11:16:01.188Z,11.38
2023-03-28T11:18:39.156Z,8.55
2023-03-28T11:21:21.108Z,7.13
2023-03-28T11:23:53.766Z,10.30
2023-03-28T11:26:32.354Z,8.77
2023-03-28T11:29:33.104Z,6.70
2023-03-28T11:32:22.458Z,8.40
2023-03-28T11:34:55.539Z,6.78
2023-03-28T11:37:33.444Z,9.50
2023-03-28T11:40:08.963Z,11.68
2023-03-28T11:42:39.634Z,8.73
2023-03-28T11:45:07.742Z,8.90
2023-03-28T11:47:37.756Z,9.48
2023-03-28T11:50:08.144Z,11.27
2023-03-28T11:52:40.312Z,9.17
2023-03-28T11:55:15.681Z,12.68
2023-03-28T11:57:42.834Z,11.32
2023-03-28T12:00:32.234Z,9.35
2023-03-28T12:03:14.700Z,10.18
2023-03-28T12:05:45.901Z,11.73
2023-03-28T12:08:15.294Z,9.35
2023-03-28T12:10:44.167Z,12.82
2023-03-28T12:13:11.596Z,11.73
2023-03-28T12:15:43.839Z,12.45
2023-03-28T12:18:17.466Z,11.40
2023-03-28T12:20:51.864Z,10.40
2023-03-28T12:23:29.070Z,10.15
2023-03-28T12:25:56.206Z,11.77
2023-03-28T12:28:40.383Z,11.52
2023-03-28T12:31:13.651Z,13.25
2023-03-28T12:33:48.748Z,12.77
2023-03-28T12:36:24.261Z,12.90
2023-03-28T12:38:55.627Z,17.08
2023-03-28T12:41:25.462Z,11.60
2023-03-28T12:44:05.624Z,10.77
2023-03-28T12:46:38.439Z,11.30
2023-03-28T12:49:13.324Z,10.75
2023-03-28T12:51:43.125Z,12.45
2023-03-28T12:54:16.286Z,8.90
2023-03-28T12:57:06.487Z,9.43
2023-03-28T12:59:39.651Z,10.13
2023-03-28T13:02:19.001Z,21.23
2023-03-28T13:04:56.680Z,8.63
2023-03-28T13:07:38.160Z,8.25
2023-03-28T13:10:07.635Z,9.32
2023-03-28T13:12:35.019Z,12.57
2023-03-28T13:15:02.320Z,11.07
2023-03-28T13:17:32.320Z,9.20
2023-03-28T13:20:10.732Z,7.13
2023-03-28T13:22:42.640Z,9.15
2023-03-28T13:25:22.085Z,8.50
2023-03-28T13:28:00.904Z,8.90
2023-03-28T13:30:29.864Z,12.00
2023-03-28T13:32:58.237Z,21.55
2023-03-28T13:35:54.824Z,9.77
2023-03-28T13:38:32.254Z,7.30
2023-03-28T13:41:01.341Z,6.70
2023-03-28T13:43:48.791Z,5.20
2023-03-28T13:46:19.668Z,8.90
2023-03-28T13:48:51.466Z,5.30
2023-03-28T13:51:22.292Z,5.20
2023-03-28T13:53:49.457Z,4.70
2023-03-28T13:56:23.650Z,3.65
2023-03-28T13:58:52.178Z,5.30
2023-03-28T14:01:27.357Z,6.63
2023-03-28T14:03:55.938Z,5.03
2023-03-28T14:06:25.104Z,5.75
2023-03-28T14:08:54.486Z,3.85
2023-03-28T14:11:30.319Z,3.70
2023-03-28T14:14:02.575Z,4.75
2023-03-28T14:16:29.748Z,4.88
2023-03-28T14:18:57.374Z,5.95
2023-03-28T14:21:25.785Z,6.28
2023-03-28T14:24:00.494Z,4.97
2023-03-28T14:26:28.950Z,5.38
2023-03-28T14:28:59.582Z,7.60
2023-03-28T14:31:34.518Z,3.75
2023-03-28T14:34:13.284Z,4.50
2023-03-28T14:37:00.879Z,4.60
2023-03-28T14:39:32.250Z,5.20
2023-03-28T14:42:02.051Z,6.97
2023-03-28T14:44:29.828Z,6.05
2023-03-28T14:46:58.453Z,3.95
2023-03-28T14:49:26.214Z,5.25
2023-03-28T14:51:58.218Z,6.53
2023-03-28T14:54:36.819Z,5.35
2023-03-28T14:57:05.347Z,5.32
2023-03-28T14:59:37.757Z,4.00
2023-03-28T15:02:05.692Z,3.50
2023-03-28T15:04:33.256Z,2.15
2023-03-28T15:07:00.434Z,2.78
2023-03-28T15:09:29.066Z,1.63
2023-03-28T15:11:56.980Z,4.20
2023-03-28T15:14:39.595Z,2.38
2023-03-28T15:17:06.962Z,2.25
2023-03-28T15:19:37.924Z,2.95
2023-03-28T15:22:09.088Z,2.80
2023-03-28T15:24:37.383Z,2.30
2023-03-28T15:27:04.743Z,3.20
2023-03-28T15:29:35.009Z,1.58
2023-03-28T15:32:04.400Z,2.92
2023-03-28T15:34:31.735Z,3.30
2023-03-28T15:37:03.512Z,1.75
2023-03-28T15:39:33.744Z,2.53
2023-03-28T15:42:00.909Z,2.03
2023-03-28T15:44:29.743Z,3.33
2023-03-28T15:46:58.895Z,3.60
2023-03-28T15:49:26.515Z,4.50
2023-03-28T15:51:56.276Z,2.22
2023-03-28T15:54:31.190Z,2.22
2023-03-28T15:57:00.867Z,5.00
2023-03-28T15:59:42.295Z,2.88
2023-03-28T16:04:36.599Z,3.67
2023-03-28T16:07:14.030Z,2.17
2023-03-28T16:09:44.151Z,2.70
2023-03-28T16:12:15.554Z,2.70
2023-03-28T16:14:45.296Z,3.13
2023-03-28T16:17:12.428Z,4.05
2023-03-28T16:19:39.619Z,4.88
2023-03-28T16:22:06.714Z,3.20
2023-03-28T16:24:34.681Z,3.03
2023-03-28T16:27:02.202Z,4.78
2023-03-28T16:29:29.294Z,3.30
2023-03-28T16:31:56.409Z,4.20
2023-03-28T16:34:23.544Z,4.10
2023-03-28T16:36:51.131Z,3.80
2023-03-28T16:39:18.597Z,4.68
2023-03-28T16:41:45.787Z,5.53
2023-03-28T16:44:12.944Z,4.35
2023-03-28T16:46:40.408Z,2.80
2023-03-28T16:49:07.635Z,2.33
2023-03-28T16:51:34.696Z,2.88
2023-03-28T16:54:01.809Z,4.85
2023-03-28T16:56:32.800Z,2.17
2023-03-28T16:58:59.921Z,4.78
2023-03-28T17:01:27.387Z,4.53
2023-03-28T17:03:55.719Z,1.85
2023-03-28T17:06:23.232Z,4.95
2023-03-28T17:08:53.177Z,3.85
2023-03-28T17:11:20.844Z,4.15
2023-03-28T17:13:51.050Z,5.80
2023-03-28T17:16:18.145Z,5.40
2023-03-28T17:18:45.567Z,4.88
2023-03-28T17:21:13.627Z,3.03
2023-03-28T17:23:44.450Z,3.22
2023-03-28T17:26:12.878Z,2.58
2023-03-28T17:28:42.140Z,4.68
2023-03-28T17:31:17.732Z,3.22
2023-03-28T17:33:45.760Z,4.00
2023-03-28T17:36:17.733Z,2.60
2023-03-28T17:38:46.498Z,2.22
2023-03-28T17:41:13.843Z,3.63
2023-03-28T17:43:41.961Z,3.80
2023-03-28T17:46:09.678Z,3.45
2023-03-28T17:48:38.572Z,2.88
2023-03-28T17:51:05.795Z,2.33
2023-03-28T17:53:33.181Z,3.22
2023-03-28T17:56:00.531Z,2.08
2023-03-28T17:58:27.912Z,4.63
2023-03-28T18:00:55.067Z,3.83
2023-03-28T18:03:22.824Z,1.90
2023-03-28T18:05:53.774Z,3.75
2023-03-28T18:08:21.470Z,2.90
2023-03-28T18:10:48.949Z,3.22
2023-03-28T18:13:16.038Z,2.55
2023-03-28T18:15:43.446Z,2.17
2023-03-28T18:18:12.803Z,3.05
2023-03-28T18:20:42.804Z,3.58
2023-03-28T18:23:09.988Z,2.03
2023-03-28T18:25:38.339Z,3.03
2023-03-28T18:28:06.525Z,1.90
2023-03-28T18:30:34.322Z,1.52
2023-03-28T18:33:01.705Z,2.05
2023-03-28T18:35:28.918Z,3.80
2023-03-28T18:37:57.593Z,3.63
2023-03-28T18:40:24.784Z,0.90
2023-03-28T18:42:52.025Z,1.60
2023-03-28T18:45:19.218Z,2.33
2023-03-28T18:47:46.635Z,4.65
2023-03-28T18:50:15.118Z,4.22
2023-03-28T18:52:42.997Z,2.63
2023-03-28T18:55:12.026Z,2.67
2023-03-28T18:57:40.294Z,2.70
2023-03-28T19:00:15.305Z,2.95
2023-03-28T19:02:42.598Z,3.00
2023-03-28T19:05:09.869Z,1.38
2023-03-28T19:07:37.098Z,2.85
2023-03-28T19:10:06.537Z,4.20
2023-03-28T19:12:36.874Z,3.13
2023-03-28T19:15:05.288Z,3.07
2023-03-28T19:17:36.377Z,3.72
2023-03-28T19:20:07.418Z,4.55
2023-03-28T19:22:35.205Z,2.33
2023-03-28T19:25:02.360Z,1.67
2023-03-28T19:27:29.514Z,2.13
2023-03-28T19:29:56.679Z,2.67
2023-03-28T19:32:24.596Z,1.92
2023-03-28T19:34:51.925Z,2.33
2023-03-28T19:37:19.988Z,2.63
2023-03-28T19:39:47.068Z,1.75
2023-03-28T19:42:18.136Z,1.00
2023-03-28T19:44:45.816Z,1.50
2023-03-28T19:47:12.889Z,1.63
2023-03-28T19:49:40.087Z,1.85
2023-03-28T19:52:09.762Z,2.15
2023-03-28T19:54:37.340Z,2.65
2023-03-28T19:57:07.989Z,1.42
2023-03-28T19:59:35.619Z,2.50
2023-03-28T20:02:02.830Z,1.75
2023-03-28T20:04:30.159Z,1.90
2023-03-28T20:06:57.365Z,2.65
2023-03-28T20:09:24.814Z,1.55
2023-03-28T20:11:52.917Z,2.53
2023-03-28T20:14:21.490Z,3.03
2023-03-28T20:16:48.983Z,3.17
2023-03-28T20:19:18.346Z,3.38
2023-03-28T20:21:45.504Z,2.78
2023-03-28T20:24:13.305Z,5.18
2023-03-28T20:26:41.505Z,5.93
2023-03-28T20:29:10.262Z,1.58
2023-03-28T20:31:37.521Z,4.75
2023-03-28T20:34:04.804Z,2.00
2023-03-28T20:36:35.039Z,2.67
2023-03-28T20:39:02.646Z,2.22
2023-03-28T20:41:30.101Z,2.70
2023-03-28T20:44:03.139Z,2.95
2023-03-28T20:46:36.834Z,4.13
2023-03-28T20:49:06.000Z,3.28
2023-03-28T20:51:35.852Z,3.58
2023-03-28T20:54:04.996Z,2.78
2023-03-28T20:56:32.770Z,2.95
2023-03-28T20:58:59.974Z,3.55
2023-03-28T21:01:30.326Z,1.25
2023-03-28T21:03:59.948Z,2.88
2023-03-28T21:06:29.800Z,3.45
2023-03-28T21:08:59.444Z,3.33
2023-03-28T21:11:27.999Z,2.28
2023-03-28T21:13:55.903Z,1.98
2023-03-28T21:16:23.800Z,2.35
2023-03-28T21:18:51.139Z,2.80
2023-03-28T21:21:18.701Z,2.97
2023-03-28T21:23:46.818Z,2.92
2023-03-28T21:26:18.332Z,2.58
2023-03-28T21:28:46.425Z,2.35
2023-03-28T21:31:15.558Z,2.83
2023-03-28T21:33:43.145Z,6.95
2023-03-28T21:36:11.780Z,3.33
2023-03-28T21:38:39.698Z,2.80
2023-03-28T21:41:07.442Z,1.35
2023-03-28T21:43:34.835Z,2.08
2023-03-28T21:46:02.272Z,2.28
2023-03-28T21:48:29.882Z,1.73
2023-03-28T21:50:59.098Z,2.38
2023-03-28T21:53:30.389Z,2.40
2023-03-28T21:55:59.239Z,2.13
2023-03-28T21:58:28.101Z,1.70
2023-03-28T22:00:55.625Z,2.90
2023-03-28T22:03:23.186Z,3.58
2023-03-28T22:05:54.033Z,1.65
2023-03-28T22:08:22.218Z,2.45
2023-03-28T22:10:51.400Z,2.03
2023-03-28T22:13:18.558Z,2.78
2023-03-28T22:15:45.842Z,2.83
2023-03-28T22:18:13.273Z,3.10
2023-03-28T22:20:43.506Z,3.00
2023-03-28T22:23:11.284Z,2.63
2023-03-28T22:25:39.089Z,3.05
2023-03-28T22:28:07.590Z,2.50
2023-03-28T22:30:34.910Z,4.00
2023-03-28T22:33:04.066Z,2.50
2023-03-28T22:35:32.327Z,3.40
2023-03-28T22:38:00.225Z,6.43
2023-03-28T22:40:27.527Z,4.65
2023-03-28T22:42:54.646Z,3.17
2023-03-28T22:45:22.776Z,2.80
2023-03-28T22:47:51.600Z,3.50
2023-03-28T22:50:19.462Z,5.03
2023-03-28T22:52:50.362Z,3.65
2023-03-28T22:55:17.944Z,3.38
2023-03-28T22:57:45.474Z,2.67
2023-03-28T23:00:13.914Z,4.18
2023-03-28T23:02:41.625Z,4.20
2023-03-28T23:05:09.487Z,4.45
2023-03-28T23:07:37.136Z,2.78
2023-03-28T23:10:05.361Z,3.70
2023-03-28T23:12:32.472Z,3.38
2023-03-28T23:14:59.603Z,2.97
2023-03-28T23:17:28.309Z,3.13
2023-03-28T23:19:55.527Z,4.55
2023-03-28T23:22:23.640Z,3.30
2023-03-28T23:24:50.783Z,3.50
2023-03-28T23:27:18.721Z,4.60
2023-03-28T23:29:46.180Z,3.97
2023-03-28T23:32:13.240Z,4.00
2023-03-28T23:34:40.390Z,3.03
2023-03-28T23:37:10.089Z,3.55
2023-03-28T23:39:38.222Z,3.97
2023-03-28T23:42:05.447Z,2.72
2023-03-28T23:44:32.593Z,1.60
2023-03-28T23:47:00.206Z,2.85
2023-03-28T23:49:27.307Z,3.90
2023-03-28T23:51:54.484Z,2.63
2023-03-28T23:54:21.664Z,2.55
2023-03-28T23:56:49.139Z,4.15
2023-03-28T23:59:16.391Z,3.95
